sensor_id;sensor_type;location;lat;lon;timestamp;temperature;humidity
33095;DHT22;19459;53.044;8.910;2022-08-18T00:01:22;20.20;99.90
33095;DHT22;19459;53.044;8.910;2022-08-18T00:03:49;20.20;99.90
33095;DHT22;19459;53.044;8.910;2022-08-18T00:06:15;20.20;99.90
33095;DHT22;19459;53.044;8.910;2022-08-18T00:08:42;20.20;99.90
33095;DHT22;19459;53.044;8.910;2022-08-18T00:11:08;20.20;99.90
33095;DHT22;19459;53.044;8.910;2022-08-18T00:13:34;20.20;99.90
33095;DHT22;19459;53.044;8.910;2022-08-18T00:16:00;20.20;99.90
33095;DHT22;19459;53.044;8.910;2022-08-18T00:18:27;20.20;99.90
33095;DHT22;19459;53.044;8.910;2022-08-18T00:20:53;20.10;99.90
33095;DHT22;19459;53.044;8.910;2022-08-18T00:23:18;20.10;99.90
33095;DHT22;19459;53.044;8.910;2022-08-18T00:25:45;20.10;99.90
33095;DHT22;19459;53.044;8.910;2022-08-18T00:28:14;20.10;99.90
33095;DHT22;19459;53.044;8.910;2022-08-18T00:30:40;20.00;99.90
33095;DHT22;19459;53.044;8.910;2022-08-18T00:33:06;20.00;99.90
33095;DHT22;19459;53.044;8.910;2022-08-18T00:35:35;20.00;99.90
33095;DHT22;19459;53.044;8.910;2022-08-18T00:38:04;19.90;99.90
33095;DHT22;19459;53.044;8.910;2022-08-18T00:40:44;19.90;99.90
33095;DHT22;19459;53.044;8.910;2022-08-18T00:43:20;19.90;99.90
33095;DHT22;19459;53.044;8.910;2022-08-18T00:45:56;19.80;99.90
33095;DHT22;19459;53.044;8.910;2022-08-18T00:48:23;19.70;99.90
33095;DHT22;19459;53.044;8.910;2022-08-18T00:50:57;19.50;99.90
33095;DHT22;19459;53.044;8.910;2022-08-18T00:53:29;19.50;99.90
33095;DHT22;19459;53.044;8.910;2022-08-18T00:56:05;19.40;99.90
33095;DHT22;19459;53.044;8.910;2022-08-18T00:58:45;19.40;99.90
33095;DHT22;19459;53.044;8.910;2022-08-18T01:01:16;19.40;99.90
33095;DHT22;19459;53.044;8.910;2022-08-18T01:03:46;19.40;99.90
33095;DHT22;19459;53.044;8.910;2022-08-18T01:06:26;19.50;99.90
33095;DHT22;19459;53.044;8.910;2022-08-18T01:08:56;19.50;99.90
33095;DHT22;19459;53.044;8.910;2022-08-18T01:11:22;19.50;99.90
33095;DHT22;19459;53.044;8.910;2022-08-18T01:13:48;19.50;99.90
33095;DHT22;19459;53.044;8.910;2022-08-18T01:16:15;19.50;99.90
33095;DHT22;19459;53.044;8.910;2022-08-18T01:19:00;19.40;99.90
33095;DHT22;19459;53.044;8.910;2022-08-18T01:21:48;19.40;99.90
33095;DHT22;19459;53.044;8.910;2022-08-18T01:24:18;19.40;99.90
33095;DHT22;19459;53.044;8.910;2022-08-18T01:27:14;19.40;99.90
33095;DHT22;19459;53.044;8.910;2022-08-18T01:29:45;19.40;99.90
33095;DHT22;19459;53.044;8.910;2022-08-18T01:32:14;19.30;99.90
33095;DHT22;19459;53.044;8.910;2022-08-18T01:34:44;19.30;99.90
33095;DHT22;19459;53.044;8.910;2022-08-18T01:37:16;19.30;99.90
33095;DHT22;19459;53.044;8.910;2022-08-18T01:39:45;19.20;99.90
33095;DHT22;19459;53.044;8.910;2022-08-18T01:42:12;19.30;99.90
33095;DHT22;19459;53.044;8.910;2022-08-18T01:44:41;19.30;99.90
33095;DHT22;19459;53.044;8.910;2022-08-18T01:47:08;19.30;99.90
33095;DHT22;19459;53.044;8.910;2022-08-18T01:49:35;19.30;99.90
33095;DHT22;19459;53.044;8.910;2022-08-18T01:52:01;19.30;99.90
33095;DHT22;19459;53.044;8.910;2022-08-18T01:54:28;19.20;99.90
33095;DHT22;19459;53.044;8.910;2022-08-18T01:56:55;19.20;99.90
33095;DHT22;19459;53.044;8.910;2022-08-18T01:59:21;19.20;99.90
33095;DHT22;19459;53.044;8.910;2022-08-18T02:01:47;19.20;99.90
33095;DHT22;19459;53.044;8.910;2022-08-18T02:04:13;19.20;99.90
33095;DHT22;19459;53.044;8.910;2022-08-18T02:06:41;19.30;99.90
33095;DHT22;19459;53.044;8.910;2022-08-18T02:09:06;19.20;99.90
33095;DHT22;19459;53.044;8.910;2022-08-18T02:11:33;19.30;99.90
33095;DHT22;19459;53.044;8.910;2022-08-18T02:13:59;19.30;99.90
33095;DHT22;19459;53.044;8.910;2022-08-18T02:16:25;19.30;99.90
33095;DHT22;19459;53.044;8.910;2022-08-18T02:18:51;19.30;99.90
33095;DHT22;19459;53.044;8.910;2022-08-18T02:21:18;19.40;99.90
33095;DHT22;19459;53.044;8.910;2022-08-18T02:23:45;19.30;99.90
33095;DHT22;19459;53.044;8.910;2022-08-18T02:26:13;19.30;99.90
33095;DHT22;19459;53.044;8.910;2022-08-18T02:28:41;19.40;99.90
33095;DHT22;19459;53.044;8.910;2022-08-18T02:31:08;19.40;99.90
33095;DHT22;19459;53.044;8.910;2022-08-18T02:33:35;19.40;99.90
33095;DHT22;19459;53.044;8.910;2022-08-18T02:36:02;19.40;99.90
33095;DHT22;19459;53.044;8.910;2022-08-18T02:38:28;19.40;99.90
33095;DHT22;19459;53.044;8.910;2022-08-18T02:40:58;19.40;99.90
33095;DHT22;19459;53.044;8.910;2022-08-18T02:43:25;19.40;99.90
33095;DHT22;19459;53.044;8.910;2022-08-18T02:45:51;19.40;99.90
33095;DHT22;19459;53.044;8.910;2022-08-18T02:48:17;19.40;99.90
33095;DHT22;19459;53.044;8.910;2022-08-18T02:51:06;19.40;99.90
33095;DHT22;19459;53.044;8.910;2022-08-18T02:53:35;19.40;99.90
33095;DHT22;19459;53.044;8.910;2022-08-18T02:56:06;19.30;99.90
33095;DHT22;19459;53.044;8.910;2022-08-18T02:58:42;19.30;99.90
33095;DHT22;19459;53.044;8.910;2022-08-18T03:01:08;19.40;99.90
33095;DHT22;19459;53.044;8.910;2022-08-18T03:03:35;19.30;99.90
33095;DHT22;19459;53.044;8.910;2022-08-18T03:06:01;19.30;99.90
33095;DHT22;19459;53.044;8.910;2022-08-18T03:08:27;19.30;99.90
33095;DHT22;19459;53.044;8.910;2022-08-18T03:10:53;19.30;99.90
33095;DHT22;19459;53.044;8.910;2022-08-18T03:13:19;19.30;99.90
33095;DHT22;19459;53.044;8.910;2022-08-18T03:15:45;19.30;99.90
33095;DHT22;19459;53.044;8.910;2022-08-18T03:18:11;19.30;99.90
33095;DHT22;19459;53.044;8.910;2022-08-18T03:20:37;19.40;99.90
33095;DHT22;19459;53.044;8.910;2022-08-18T03:23:04;19.30;99.90
33095;DHT22;19459;53.044;8.910;2022-08-18T03:25:30;19.40;99.90
33095;DHT22;19459;53.044;8.910;2022-08-18T03:27:56;19.40;99.90
33095;DHT22;19459;53.044;8.910;2022-08-18T03:30:21;19.30;99.90
33095;DHT22;19459;53.044;8.910;2022-08-18T03:32:48;19.30;99.90
33095;DHT22;19459;53.044;8.910;2022-08-18T03:35:14;19.30;99.90
33095;DHT22;19459;53.044;8.910;2022-08-18T03:37:41;19.40;99.90
33095;DHT22;19459;53.044;8.910;2022-08-18T03:40:07;19.50;99.90
33095;DHT22;19459;53.044;8.910;2022-08-18T03:42:35;19.50;99.90
33095;DHT22;19459;53.044;8.910;2022-08-18T03:45:01;19.50;99.90
33095;DHT22;19459;53.044;8.910;2022-08-18T03:47:26;19.40;99.90
33095;DHT22;19459;53.044;8.910;2022-08-18T03:49:52;19.40;99.90
33095;DHT22;19459;53.044;8.910;2022-08-18T03:52:18;19.40;99.90
33095;DHT22;19459;53.044;8.910;2022-08-18T03:54:44;19.40;99.90
33095;DHT22;19459;53.044;8.910;2022-08-18T03:57:11;19.40;99.90
33095;DHT22;19459;53.044;8.910;2022-08-18T03:59:37;19.40;99.90
33095;DHT22;19459;53.044;8.910;2022-08-18T04:02:05;19.40;99.90
33095;DHT22;19459;53.044;8.910;2022-08-18T04:04:32;19.40;99.90
33095;DHT22;19459;53.044;8.910;2022-08-18T04:06:59;19.40;99.90
33095;DHT22;19459;53.044;8.910;2022-08-18T04:09:29;19.40;99.90
33095;DHT22;19459;53.044;8.910;2022-08-18T04:11:56;19.40;99.90
33095;DHT22;19459;53.044;8.910;2022-08-18T04:14:23;19.40;99.90
33095;DHT22;19459;53.044;8.910;2022-08-18T04:16:52;19.40;99.90
33095;DHT22;19459;53.044;8.910;2022-08-18T04:19:18;19.40;99.90
33095;DHT22;19459;53.044;8.910;2022-08-18T04:21:43;19.50;99.90
33095;DHT22;19459;53.044;8.910;2022-08-18T04:24:10;19.50;99.90
33095;DHT22;19459;53.044;8.910;2022-08-18T04:26:41;19.50;99.90
33095;DHT22;19459;53.044;8.910;2022-08-18T04:29:10;19.50;99.90
33095;DHT22;19459;53.044;8.910;2022-08-18T04:31:37;19.50;99.90
33095;DHT22;19459;53.044;8.910;2022-08-18T04:34:03;19.60;99.90
33095;DHT22;19459;53.044;8.910;2022-08-18T04:36:30;19.60;99.90
33095;DHT22;19459;53.044;8.910;2022-08-18T04:38:58;19.60;99.90
33095;DHT22;19459;53.044;8.910;2022-08-18T04:41:24;19.60;99.90
33095;DHT22;19459;53.044;8.910;2022-08-18T04:43:58;19.60;99.90
33095;DHT22;19459;53.044;8.910;2022-08-18T04:46:25;19.60;99.90
33095;DHT22;19459;53.044;8.910;2022-08-18T04:48:51;19.60;99.90
33095;DHT22;19459;53.044;8.910;2022-08-18T04:51:23;19.60;99.90
33095;DHT22;19459;53.044;8.910;2022-08-18T04:53:49;19.70;99.90
33095;DHT22;19459;53.044;8.910;2022-08-18T04:56:27;19.70;99.90
33095;DHT22;19459;53.044;8.910;2022-08-18T05:01:27;19.70;99.90
33095;DHT22;19459;53.044;8.910;2022-08-18T05:03:54;19.80;99.90
33095;DHT22;19459;53.044;8.910;2022-08-18T05:06:22;19.80;99.90
33095;DHT22;19459;53.044;8.910;2022-08-18T05:08:55;19.80;99.90
33095;DHT22;19459;53.044;8.910;2022-08-18T05:11:25;19.90;99.90
33095;DHT22;19459;53.044;8.910;2022-08-18T05:13:58;19.90;99.90
33095;DHT22;19459;53.044;8.910;2022-08-18T05:16:24;19.90;99.90
33095;DHT22;19459;53.044;8.910;2022-08-18T05:18:51;19.90;99.90
33095;DHT22;19459;53.044;8.910;2022-08-18T05:21:20;19.90;99.90
33095;DHT22;19459;53.044;8.910;2022-08-18T05:23:48;19.90;99.90
33095;DHT22;19459;53.044;8.910;2022-08-18T05:26:15;19.80;99.90
33095;DHT22;19459;53.044;8.910;2022-08-18T05:28:42;19.80;99.90
33095;DHT22;19459;53.044;8.910;2022-08-18T05:31:09;19.80;99.90
33095;DHT22;19459;53.044;8.910;2022-08-18T05:34:02;19.80;99.90
33095;DHT22;19459;53.044;8.910;2022-08-18T05:39:26;19.80;99.90
33095;DHT22;19459;53.044;8.910;2022-08-18T05:42:02;19.80;99.90
33095;DHT22;19459;53.044;8.910;2022-08-18T05:44:29;19.80;99.90
33095;DHT22;19459;53.044;8.910;2022-08-18T05:47:02;19.80;99.90
33095;DHT22;19459;53.044;8.910;2022-08-18T05:49:31;19.80;99.90
33095;DHT22;19459;53.044;8.910;2022-08-18T05:52:00;19.80;99.90
33095;DHT22;19459;53.044;8.910;2022-08-18T05:54:32;19.90;99.90
33095;DHT22;19459;53.044;8.910;2022-08-18T05:57:22;19.90;99.90
33095;DHT22;19459;53.044;8.910;2022-08-18T05:59:49;19.90;99.90
33095;DHT22;19459;53.044;8.910;2022-08-18T06:02:19;19.90;99.90
33095;DHT22;19459;53.044;8.910;2022-08-18T06:04:53;19.90;99.90
33095;DHT22;19459;53.044;8.910;2022-08-18T06:07:32;19.90;99.90
33095;DHT22;19459;53.044;8.910;2022-08-18T06:10:18;19.90;99.90
33095;DHT22;19459;53.044;8.910;2022-08-18T06:12:45;20.00;99.90
33095;DHT22;19459;53.044;8.910;2022-08-18T06:15:13;20.00;99.90
33095;DHT22;19459;53.044;8.910;2022-08-18T06:31:47;20.10;99.90
33095;DHT22;19459;53.044;8.910;2022-08-18T06:37:10;20.30;99.90
33095;DHT22;19459;53.044;8.910;2022-08-18T06:39:46;20.30;99.90
33095;DHT22;19459;53.044;8.910;2022-08-18T06:42:19;20.40;99.90
33095;DHT22;19459;53.044;8.910;2022-08-18T06:45:00;20.40;99.90
33095;DHT22;19459;53.044;8.910;2022-08-18T06:50:15;20.60;99.90
33095;DHT22;19459;53.044;8.910;2022-08-18T06:52:51;20.70;99.90
33095;DHT22;19459;53.044;8.910;2022-08-18T06:55:34;20.60;99.90
33095;DHT22;19459;53.044;8.910;2022-08-18T07:00:36;20.80;99.90
33095;DHT22;19459;53.044;8.910;2022-08-18T07:03:16;20.90;99.90
33095;DHT22;19459;53.044;8.910;2022-08-18T07:08:49;21.10;99.90
33095;DHT22;19459;53.044;8.910;2022-08-18T07:11:31;21.20;99.90
33095;DHT22;19459;53.044;8.910;2022-08-18T07:16:38;21.10;99.90
33095;DHT22;19459;53.044;8.910;2022-08-18T07:19:07;21.20;99.90
33095;DHT22;19459;53.044;8.910;2022-08-18T07:21:34;21.30;99.90
33095;DHT22;19459;53.044;8.910;2022-08-18T07:24:06;21.40;99.90
33095;DHT22;19459;53.044;8.910;2022-08-18T07:29:32;21.40;99.90
33095;DHT22;19459;53.044;8.910;2022-08-18T07:32:13;21.50;99.90
33095;DHT22;19459;53.044;8.910;2022-08-18T07:34:42;21.70;99.90
33095;DHT22;19459;53.044;8.910;2022-08-18T07:37:22;21.70;99.90
33095;DHT22;19459;53.044;8.910;2022-08-18T07:40:00;21.80;99.90
33095;DHT22;19459;53.044;8.910;2022-08-18T07:42:43;21.80;99.90
33095;DHT22;19459;53.044;8.910;2022-08-18T07:47:55;21.50;99.90
33095;DHT22;19459;53.044;8.910;2022-08-18T07:50:24;21.60;99.90
33095;DHT22;19459;53.044;8.910;2022-08-18T07:53:12;21.50;99.90
33095;DHT22;19459;53.044;8.910;2022-08-18T07:56:22;21.50;99.90
33095;DHT22;19459;53.044;8.910;2022-08-18T07:58:57;21.60;99.90
33095;DHT22;19459;53.044;8.910;2022-08-18T08:01:32;21.80;99.90
33095;DHT22;19459;53.044;8.910;2022-08-18T08:04:08;21.90;99.90
33095;DHT22;19459;53.044;8.910;2022-08-18T08:06:43;22.00;99.90
33095;DHT22;19459;53.044;8.910;2022-08-18T08:11:58;21.90;99.90
33095;DHT22;19459;53.044;8.910;2022-08-18T08:20:07;22.00;99.90
33095;DHT22;19459;53.044;8.910;2022-08-18T08:25:35;22.20;99.90
33095;DHT22;19459;53.044;8.910;2022-08-18T08:33:26;22.10;99.90
33095;DHT22;19459;53.044;8.910;2022-08-18T08:36:02;22.20;99.90
33095;DHT22;19459;53.044;8.910;2022-08-18T08:39:15;22.20;99.90
33095;DHT22;19459;53.044;8.910;2022-08-18T08:41:40;22.10;99.90
33095;DHT22;19459;53.044;8.910;2022-08-18T08:44:14;22.10;99.90
33095;DHT22;19459;53.044;8.910;2022-08-18T08:46:46;22.20;99.90
33095;DHT22;19459;53.044;8.910;2022-08-18T08:49:26;22.20;99.90
33095;DHT22;19459;53.044;8.910;2022-08-18T08:52:23;22.10;99.90
33095;DHT22;19459;53.044;8.910;2022-08-18T08:54:57;22.20;99.90
33095;DHT22;19459;53.044;8.910;2022-08-18T08:57:26;22.20;99.90
33095;DHT22;19459;53.044;8.910;2022-08-18T08:59:56;22.20;99.90
33095;DHT22;19459;53.044;8.910;2022-08-18T09:02:36;22.40;99.90
33095;DHT22;19459;53.044;8.910;2022-08-18T09:05:16;22.40;99.90
33095;DHT22;19459;53.044;8.910;2022-08-18T09:08:00;22.30;99.90
33095;DHT22;19459;53.044;8.910;2022-08-18T09:24:52;22.80;99.90
33095;DHT22;19459;53.044;8.910;2022-08-18T09:27:37;22.90;99.90
33095;DHT22;19459;53.044;8.910;2022-08-18T09:38:18;23.20;99.90
33095;DHT22;19459;53.044;8.910;2022-08-18T09:41:09;23.30;99.90
33095;DHT22;19459;53.044;8.910;2022-08-18T09:49:42;23.00;99.90
33095;DHT22;19459;53.044;8.910;2022-08-18T09:57:22;23.20;99.90
33095;DHT22;19459;53.044;8.910;2022-08-18T09:59:50;23.20;99.90
33095;DHT22;19459;53.044;8.910;2022-08-18T10:05:38;23.50;99.90
33095;DHT22;19459;53.044;8.910;2022-08-18T10:27:03;25.80;99.90
33095;DHT22;19459;53.044;8.910;2022-08-18T10:29:44;26.10;99.90
33095;DHT22;19459;53.044;8.910;2022-08-18T10:39:56;25.90;99.90
33095;DHT22;19459;53.044;8.910;2022-08-18T10:42:32;25.70;99.90
33095;DHT22;19459;53.044;8.910;2022-08-18T10:47:58;26.20;99.90
33095;DHT22;19459;53.044;8.910;2022-08-18T10:50:30;26.40;99.90
33095;DHT22;19459;53.044;8.910;2022-08-18T10:58:21;26.10;99.90
33095;DHT22;19459;53.044;8.910;2022-08-18T11:06:41;27.10;99.90
33095;DHT22;19459;53.044;8.910;2022-08-18T11:09:09;26.60;99.90
33095;DHT22;19459;53.044;8.910;2022-08-18T11:11:37;26.60;99.90
33095;DHT22;19459;53.044;8.910;2022-08-18T11:19:47;27.00;99.90
33095;DHT22;19459;53.044;8.910;2022-08-18T11:22:27;26.80;99.90
33095;DHT22;19459;53.044;8.910;2022-08-18T11:24:54;26.50;99.90
33095;DHT22;19459;53.044;8.910;2022-08-18T11:27:30;26.40;99.90
33095;DHT22;19459;53.044;8.910;2022-08-18T11:30:02;26.60;99.90
33095;DHT22;19459;53.044;8.910;2022-08-18T11:32:36;27.00;99.90
33095;DHT22;19459;53.044;8.910;2022-08-18T11:35:06;26.90;99.90
33095;DHT22;19459;53.044;8.910;2022-08-18T11:40:11;26.70;99.70
33095;DHT22;19459;53.044;8.910;2022-08-18T11:42:58;26.40;99.90
33095;DHT22;19459;53.044;8.910;2022-08-18T11:45:28;26.30;99.90
33095;DHT22;19459;53.044;8.910;2022-08-18T11:47:59;26.10;99.90
33095;DHT22;19459;53.044;8.910;2022-08-18T11:56:27;26.80;99.90
33095;DHT22;19459;53.044;8.910;2022-08-18T12:06:35;26.20;99.90
33095;DHT22;19459;53.044;8.910;2022-08-18T12:12:28;25.90;99.90
33095;DHT22;19459;53.044;8.910;2022-08-18T12:14:57;25.80;99.90
33095;DHT22;19459;53.044;8.910;2022-08-18T12:17:39;25.80;99.90
33095;DHT22;19459;53.044;8.910;2022-08-18T12:20:06;25.90;99.90
33095;DHT22;19459;53.044;8.910;2022-08-18T12:22:34;26.00;99.90
33095;DHT22;19459;53.044;8.910;2022-08-18T12:25:02;26.60;99.90
33095;DHT22;19459;53.044;8.910;2022-08-18T12:27:30;27.10;99.90
33095;DHT22;19459;53.044;8.910;2022-08-18T12:29:56;27.50;99.90
33095;DHT22;19459;53.044;8.910;2022-08-18T12:32:23;27.60;99.30
33095;DHT22;19459;53.044;8.910;2022-08-18T12:34:52;27.40;99.90
33095;DHT22;19459;53.044;8.910;2022-08-18T12:37:18;27.20;99.90
33095;DHT22;19459;53.044;8.910;2022-08-18T12:39:45;27.20;99.90
33095;DHT22;19459;53.044;8.910;2022-08-18T12:42:12;27.30;99.90
33095;DHT22;19459;53.044;8.910;2022-08-18T12:44:37;27.40;99.90
33095;DHT22;19459;53.044;8.910;2022-08-18T12:47:05;27.20;99.00
33095;DHT22;19459;53.044;8.910;2022-08-18T12:49:37;27.30;99.70
33095;DHT22;19459;53.044;8.910;2022-08-18T12:52:03;27.10;99.30
33095;DHT22;19459;53.044;8.910;2022-08-18T12:54:30;26.90;99.60
33095;DHT22;19459;53.044;8.910;2022-08-18T12:56:58;26.80;99.90
33095;DHT22;19459;53.044;8.910;2022-08-18T12:59:24;26.80;99.90
33095;DHT22;19459;53.044;8.910;2022-08-18T13:01:50;26.90;99.90
33095;DHT22;19459;53.044;8.910;2022-08-18T13:04:17;26.80;99.60
33095;DHT22;19459;53.044;8.910;2022-08-18T13:06:48;26.80;99.90
33095;DHT22;19459;53.044;8.910;2022-08-18T13:09:15;26.70;99.90
33095;DHT22;19459;53.044;8.910;2022-08-18T13:11:41;26.70;99.90
33095;DHT22;19459;53.044;8.910;2022-08-18T13:14:07;26.80;99.90
33095;DHT22;19459;53.044;8.910;2022-08-18T13:16:35;26.70;99.90
33095;DHT22;19459;53.044;8.910;2022-08-18T13:19:03;26.70;99.90
33095;DHT22;19459;53.044;8.910;2022-08-18T13:21:29;26.90;99.90
33095;DHT22;19459;53.044;8.910;2022-08-18T13:23:55;27.20;99.90
33095;DHT22;19459;53.044;8.910;2022-08-18T13:26:26;27.50;99.90
33095;DHT22;19459;53.044;8.910;2022-08-18T13:28:53;28.00;99.90
33095;DHT22;19459;53.044;8.910;2022-08-18T13:31:19;28.10;98.60
33095;DHT22;19459;53.044;8.910;2022-08-18T13:33:45;28.30;99.50
33095;DHT22;19459;53.044;8.910;2022-08-18T13:36:11;28.80;99.90
33095;DHT22;19459;53.044;8.910;2022-08-18T13:38:37;28.80;98.90
33095;DHT22;19459;53.044;8.910;2022-08-18T13:41:07;28.70;99.10
33095;DHT22;19459;53.044;8.910;2022-08-18T13:43:34;28.20;98.50
33095;DHT22;19459;53.044;8.910;2022-08-18T13:46:03;27.90;99.40
33095;DHT22;19459;53.044;8.910;2022-08-18T13:48:33;27.40;99.10
33095;DHT22;19459;53.044;8.910;2022-08-18T13:50:59;27.30;99.90
33095;DHT22;19459;53.044;8.910;2022-08-18T13:53:26;27.00;99.90
33095;DHT22;19459;53.044;8.910;2022-08-18T13:55:53;26.80;99.90
33095;DHT22;19459;53.044;8.910;2022-08-18T13:58:22;26.70;99.90
33095;DHT22;19459;53.044;8.910;2022-08-18T14:00:50;26.50;99.90
33095;DHT22;19459;53.044;8.910;2022-08-18T14:03:21;26.60;99.90
33095;DHT22;19459;53.044;8.910;2022-08-18T14:05:48;26.40;99.90
33095;DHT22;19459;53.044;8.910;2022-08-18T14:08:14;26.20;99.90
33095;DHT22;19459;53.044;8.910;2022-08-18T14:10:42;26.10;99.90
33095;DHT22;19459;53.044;8.910;2022-08-18T14:13:07;26.00;99.90
33095;DHT22;19459;53.044;8.910;2022-08-18T14:15:33;25.90;99.90
33095;DHT22;19459;53.044;8.910;2022-08-18T14:18:03;26.20;99.90
33095;DHT22;19459;53.044;8.910;2022-08-18T14:20:29;26.50;99.90
33095;DHT22;19459;53.044;8.910;2022-08-18T14:23:14;26.40;99.90
33095;DHT22;19459;53.044;8.910;2022-08-18T14:25:58;26.40;99.90
33095;DHT22;19459;53.044;8.910;2022-08-18T14:28:42;26.50;99.90
33095;DHT22;19459;53.044;8.910;2022-08-18T14:31:08;26.80;99.90
33095;DHT22;19459;53.044;8.910;2022-08-18T14:33:36;26.90;99.90
33095;DHT22;19459;53.044;8.910;2022-08-18T14:36:03;26.90;99.90
33095;DHT22;19459;53.044;8.910;2022-08-18T14:38:30;26.70;99.90
33095;DHT22;19459;53.044;8.910;2022-08-18T14:40:57;26.50;99.90
33095;DHT22;19459;53.044;8.910;2022-08-18T14:43:24;26.20;99.90
33095;DHT22;19459;53.044;8.910;2022-08-18T14:45:50;26.00;99.90
33095;DHT22;19459;53.044;8.910;2022-08-18T14:48:19;26.00;99.90
33095;DHT22;19459;53.044;8.910;2022-08-18T14:50:51;25.90;99.90
33095;DHT22;19459;53.044;8.910;2022-08-18T14:53:23;25.90;99.90
33095;DHT22;19459;53.044;8.910;2022-08-18T14:55:51;26.00;99.90
33095;DHT22;19459;53.044;8.910;2022-08-18T14:58:20;26.10;99.90
33095;DHT22;19459;53.044;8.910;2022-08-18T15:00:55;26.10;99.90
33095;DHT22;19459;53.044;8.910;2022-08-18T15:03:23;26.30;99.90
33095;DHT22;19459;53.044;8.910;2022-08-18T15:05:51;26.50;99.90
33095;DHT22;19459;53.044;8.910;2022-08-18T15:08:16;26.40;99.90
33095;DHT22;19459;53.044;8.910;2022-08-18T15:10:43;26.50;99.90
33095;DHT22;19459;53.044;8.910;2022-08-18T15:13:10;26.60;99.90
33095;DHT22;19459;53.044;8.910;2022-08-18T15:15:36;26.60;99.90
33095;DHT22;19459;53.044;8.910;2022-08-18T15:18:02;26.60;99.90
33095;DHT22;19459;53.044;8.910;2022-08-18T15:20:28;26.40;99.90
33095;DHT22;19459;53.044;8.910;2022-08-18T15:22:54;26.30;99.90
33095;DHT22;19459;53.044;8.910;2022-08-18T15:25:53;26.10;99.90
33095;DHT22;19459;53.044;8.910;2022-08-18T15:28:19;25.80;99.90
33095;DHT22;19459;53.044;8.910;2022-08-18T15:30:47;25.50;99.90
33095;DHT22;19459;53.044;8.910;2022-08-18T15:33:15;25.30;99.90
33095;DHT22;19459;53.044;8.910;2022-08-18T15:35:41;25.20;99.90
33095;DHT22;19459;53.044;8.910;2022-08-18T15:38:10;25.30;99.90
33095;DHT22;19459;53.044;8.910;2022-08-18T15:40:58;25.20;99.90
33095;DHT22;19459;53.044;8.910;2022-08-18T15:43:25;25.30;99.90
33095;DHT22;19459;53.044;8.910;2022-08-18T15:45:51;25.40;99.90
33095;DHT22;19459;53.044;8.910;2022-08-18T15:48:19;25.40;99.90
33095;DHT22;19459;53.044;8.910;2022-08-18T15:50:46;25.50;99.90
33095;DHT22;19459;53.044;8.910;2022-08-18T15:53:14;25.50;99.90
33095;DHT22;19459;53.044;8.910;2022-08-18T15:55:41;25.40;99.90
33095;DHT22;19459;53.044;8.910;2022-08-18T15:58:08;25.20;99.90
33095;DHT22;19459;53.044;8.910;2022-08-18T16:00:35;25.00;99.90
33095;DHT22;19459;53.044;8.910;2022-08-18T16:03:03;25.00;99.90
33095;DHT22;19459;53.044;8.910;2022-08-18T16:05:33;24.90;99.90
33095;DHT22;19459;53.044;8.910;2022-08-18T16:08:02;24.80;99.90
33095;DHT22;19459;53.044;8.910;2022-08-18T16:10:30;24.60;99.90
33095;DHT22;19459;53.044;8.910;2022-08-18T16:12:57;24.50;99.90
33095;DHT22;19459;53.044;8.910;2022-08-18T16:15:24;24.60;99.90
33095;DHT22;19459;53.044;8.910;2022-08-18T16:17:51;24.60;99.90
33095;DHT22;19459;53.044;8.910;2022-08-18T16:20:19;24.50;99.90
33095;DHT22;19459;53.044;8.910;2022-08-18T16:22:47;24.30;99.90
33095;DHT22;19459;53.044;8.910;2022-08-18T16:25:14;24.10;99.90
33095;DHT22;19459;53.044;8.910;2022-08-18T16:27:40;23.90;99.90
33095;DHT22;19459;53.044;8.910;2022-08-18T16:30:08;24.00;99.90
33095;DHT22;19459;53.044;8.910;2022-08-18T16:32:37;24.00;99.90
33095;DHT22;19459;53.044;8.910;2022-08-18T16:35:03;23.90;99.90
33095;DHT22;19459;53.044;8.910;2022-08-18T16:37:29;23.90;99.90
33095;DHT22;19459;53.044;8.910;2022-08-18T16:39:55;23.70;99.90
33095;DHT22;19459;53.044;8.910;2022-08-18T16:42:21;23.60;99.90
33095;DHT22;19459;53.044;8.910;2022-08-18T16:44:47;23.50;99.90
33095;DHT22;19459;53.044;8.910;2022-08-18T16:47:13;23.50;99.90
33095;DHT22;19459;53.044;8.910;2022-08-18T16:49:42;23.40;99.90
33095;DHT22;19459;53.044;8.910;2022-08-18T16:52:10;23.40;99.90
33095;DHT22;19459;53.044;8.910;2022-08-18T16:54:37;23.40;99.90
33095;DHT22;19459;53.044;8.910;2022-08-18T16:57:03;23.20;99.90
33095;DHT22;19459;53.044;8.910;2022-08-18T16:59:28;23.10;99.90
33095;DHT22;19459;53.044;8.910;2022-08-18T17:02:12;23.10;99.90
33095;DHT22;19459;53.044;8.910;2022-08-18T17:04:56;23.00;99.90
33095;DHT22;19459;53.044;8.910;2022-08-18T17:07:27;23.00;99.90
33095;DHT22;19459;53.044;8.910;2022-08-18T17:09:53;22.90;99.90
33095;DHT22;19459;53.044;8.910;2022-08-18T17:12:20;22.90;99.90
33095;DHT22;19459;53.044;8.910;2022-08-18T17:14:46;22.70;99.90
33095;DHT22;19459;53.044;8.910;2022-08-18T17:17:13;22.80;99.90
33095;DHT22;19459;53.044;8.910;2022-08-18T17:19:39;22.80;99.90
33095;DHT22;19459;53.044;8.910;2022-08-18T17:22:05;22.80;99.90
33095;DHT22;19459;53.044;8.910;2022-08-18T17:24:30;22.70;99.90
33095;DHT22;19459;53.044;8.910;2022-08-18T17:29:34;22.70;99.90
33095;DHT22;19459;53.044;8.910;2022-08-18T17:32:17;22.80;99.90
33095;DHT22;19459;53.044;8.910;2022-08-18T17:34:46;22.70;99.90
33095;DHT22;19459;53.044;8.910;2022-08-18T17:37:16;22.90;99.90
33095;DHT22;19459;53.044;8.910;2022-08-18T17:39:48;22.90;99.90
33095;DHT22;19459;53.044;8.910;2022-08-18T17:42:18;22.90;99.90
33095;DHT22;19459;53.044;8.910;2022-08-18T17:44:50;22.80;99.90
33095;DHT22;19459;53.044;8.910;2022-08-18T17:47:30;22.80;99.90
33095;DHT22;19459;53.044;8.910;2022-08-18T17:50:00;22.80;99.90
33095;DHT22;19459;53.044;8.910;2022-08-18T17:52:51;22.80;99.90
33095;DHT22;19459;53.044;8.910;2022-08-18T17:55:30;22.90;99.90
33095;DHT22;19459;53.044;8.910;2022-08-18T17:58:09;22.80;99.90
33095;DHT22;19459;53.044;8.910;2022-08-18T18:00:39;22.60;99.90
33095;DHT22;19459;53.044;8.910;2022-08-18T18:03:06;22.50;99.90
33095;DHT22;19459;53.044;8.910;2022-08-18T18:05:35;22.50;99.90
33095;DHT22;19459;53.044;8.910;2022-08-18T18:08:02;22.40;99.90
33095;DHT22;19459;53.044;8.910;2022-08-18T18:10:33;22.20;99.90
33095;DHT22;19459;53.044;8.910;2022-08-18T18:15:58;22.10;99.90
33095;DHT22;19459;53.044;8.910;2022-08-18T18:18:35;22.00;99.90
33095;DHT22;19459;53.044;8.910;2022-08-18T18:23:39;21.80;99.90
33095;DHT22;19459;53.044;8.910;2022-08-18T18:26:21;21.80;99.90
33095;DHT22;19459;53.044;8.910;2022-08-18T18:28:50;21.70;99.90
33095;DHT22;19459;53.044;8.910;2022-08-18T18:31:26;21.60;99.90
33095;DHT22;19459;53.044;8.910;2022-08-18T18:33:54;21.50;99.90
33095;DHT22;19459;53.044;8.910;2022-08-18T18:36:34;21.60;99.90